Time;durP1;ratioP1;P1;durP2;ratioP2;P2;SDS_P1;SDS_P2;PMS_P1;PMS_P2;Temp;Humidity;BMP_temperature;BMP_pressure;BME280_temperature;BME280_humidity;BME280_pressure;Samples;Min_cycle;Max_cycle;Signal;HPM_P1;HPM_P2
2021/12/22 00:02:07;;;;;;;90.57;26.70;;;-2.30;99.90;;;;;;6125064;23;20450;-88
2021/12/22 00:04:37;;;;;;;91.33;27.07;;;-2.20;99.90;;;;;;6124022;23;20212;-88
2021/12/22 00:07:03;;;;;;;87.13;22.98;;;-2.30;99.90;;;;;;6098930;23;20580;-88
2021/12/22 00:09:28;;;;;;;88.47;22.07;;;-2.20;99.90;;;;;;6099418;23;20165;-88
2021/12/22 00:11:54;;;;;;;84.23;21.27;;;-2.20;99.90;;;;;;6125252;23;20452;-88
2021/12/22 00:14:20;;;;;;;82.77;23.07;;;-2.20;99.90;;;;;;6124620;23;20173;-88
2021/12/22 00:16:46;;;;;;;87.47;24.30;;;-2.30;99.90;;;;;;6124968;23;20146;-88
2021/12/22 00:19:11;;;;;;;82.53;20.40;;;-2.30;99.90;;;;;;6125410;23;20385;-88
2021/12/22 00:21:37;;;;;;;78.87;19.57;;;-2.30;99.90;;;;;;6125186;23;20477;-88
2021/12/22 00:24:03;;;;;;;85.90;21.47;;;-2.30;99.90;;;;;;6124517;23;20443;-88
2021/12/22 00:26:29;;;;;;;81.50;25.57;;;-2.30;99.90;;;;;;6099576;23;20382;-88
2021/12/22 00:28:55;;;;;;;80.47;22.30;;;-2.30;99.90;;;;;;6125002;23;20366;-88
2021/12/22 00:31:21;;;;;;;78.60;22.30;;;-2.40;99.90;;;;;;6122900;23;20596;-88
2021/12/22 00:33:49;;;;;;;80.68;22.63;;;-2.40;99.90;;;;;;6097480;23;20185;-88
2021/12/22 00:36:18;;;;;;;78.72;24.67;;;-2.40;99.90;;;;;;6098435;23;20150;-88
2021/12/22 00:38:44;;;;;;;78.55;21.27;;;-2.40;99.90;;;;;;6097019;23;20159;-88
2021/12/22 00:41:10;;;;;;;78.28;20.67;;;-2.40;99.90;;;;;;6122606;23;20244;-86
2021/12/22 00:43:37;;;;;;;81.25;19.25;;;-2.40;99.90;;;;;;6133490;23;20261;-87
2021/12/22 00:46:04;;;;;;;81.90;21.30;;;-2.40;99.90;;;;;;6107660;23;20161;-87
2021/12/22 00:48:35;;;;;;;81.38;22.77;;;-2.40;99.90;;;;;;6133752;23;20154;-86
2021/12/22 00:51:09;;;;;;;84.97;20.48;;;-2.40;99.90;;;;;;6108148;23;20174;-85
2021/12/22 00:53:41;;;;;;;83.93;20.95;;;-2.40;99.90;;;;;;6133475;23;20501;-87
2021/12/22 00:56:13;;;;;;;82.70;21.55;;;-2.40;99.90;;;;;;6107634;23;20218;-87
2021/12/22 00:58:39;;;;;;;78.50;21.85;;;-2.50;99.90;;;;;;6107914;23;20151;-87
2021/12/22 01:01:08;;;;;;;76.53;19.23;;;-2.50;99.90;;;;;;6107839;23;20281;-87
2021/12/22 01:03:41;;;;;;;78.50;21.42;;;-2.40;99.90;;;;;;6132879;23;20186;-87
2021/12/22 01:06:07;;;;;;;82.80;21.55;;;-2.50;99.90;;;;;;6108866;23;20135;-87
2021/12/22 01:08:33;;;;;;;80.17;18.50;;;-2.40;99.90;;;;;;6107814;23;20166;-88
2021/12/22 01:10:58;;;;;;;78.03;21.93;;;-2.50;99.90;;;;;;6109707;23;20151;-88
2021/12/22 01:13:24;;;;;;;81.67;20.00;;;-2.50;99.90;;;;;;6108364;23;20422;-87
2021/12/22 01:15:53;;;;;;;90.67;26.00;;;-2.60;99.90;;;;;;6134221;23;20370;-87
2021/12/22 01:18:29;;;;;;;80.57;20.13;;;-2.60;99.90;;;;;;6107930;23;20379;-87
2021/12/22 01:23:22;;;;;;;81.70;22.20;;;-2.60;99.90;;;;;;6135809;23;20183;-87
2021/12/22 01:25:48;;;;;;;86.57;21.35;;;-2.70;99.90;;;;;;6110556;23;20410;-87
2021/12/22 01:28:16;;;;;;;77.97;18.58;;;-2.60;99.90;;;;;;6109021;23;20146;-87
2021/12/22 01:30:46;;;;;;;80.00;21.95;;;-2.70;99.90;;;;;;6108035;23;20147;-87
2021/12/22 01:33:13;;;;;;;79.30;20.98;;;-2.70;99.90;;;;;;6108272;23;20237;-87
2021/12/22 01:35:39;;;;;;;76.03;17.85;;;-2.70;99.90;;;;;;6134466;23;20143;-87
2021/12/22 01:38:06;;;;;;;79.23;19.53;;;-2.70;99.90;;;;;;6134123;23;20149;-87
2021/12/22 01:40:39;;;;;;;84.95;19.65;;;-2.70;99.90;;;;;;6133757;23;20700;-87
2021/12/22 01:43:05;;;;;;;84.13;22.20;;;-2.70;99.90;;;;;;6108113;23;20179;-87
2021/12/22 01:46:09;;;;;;;77.60;19.77;;;-2.70;99.90;;;;;;6134547;23;20139;-87
2021/12/22 01:49:11;;;;;;;78.57;18.02;;;-2.70;99.90;;;;;;6108136;23;20145;-87
2021/12/22 01:51:55;;;;;;;81.18;18.00;;;-2.70;99.90;;;;;;6108119;23;20192;-87
2021/12/22 01:54:21;;;;;;;85.47;18.83;;;-2.70;99.90;;;;;;6107827;23;20167;-87
2021/12/22 01:56:51;;;;;;;85.22;20.27;;;-2.80;99.90;;;;;;6108224;23;20157;-87
2021/12/22 01:59:20;;;;;;;75.82;20.70;;;-2.80;99.90;;;;;;6108822;23;20142;-87
2021/12/22 02:01:46;;;;;;;82.88;18.80;;;-2.80;99.90;;;;;;6133690;23;20163;-87
2021/12/22 02:04:13;;;;;;;78.75;20.27;;;-2.90;99.90;;;;;;6107547;23;20230;-87
2021/12/22 02:06:45;;;;;;;79.05;23.30;;;-2.90;99.90;;;;;;6134283;23;20167;-87
2021/12/22 02:09:16;;;;;;;79.57;20.20;;;-3.00;99.90;;;;;;6107815;23;20181;-87
2021/12/22 02:11:42;;;;;;;78.25;19.13;;;-3.00;99.90;;;;;;6107689;23;20142;-86
2021/12/22 02:14:08;;;;;;;78.60;19.00;;;-3.00;99.90;;;;;;6132786;23;20539;-87
2021/12/22 02:16:38;;;;;;;76.90;19.47;;;-3.00;99.90;;;;;;6131345;23;20147;-87
2021/12/22 02:19:06;;;;;;;76.68;18.92;;;-3.00;99.90;;;;;;6107511;23;20701;-87
2021/12/22 02:21:38;;;;;;;74.78;15.50;;;-3.00;99.90;;;;;;6133606;23;20146;-87
2021/12/22 02:24:04;;;;;;;85.88;17.60;;;-3.00;99.90;;;;;;6107003;23;20167;-87
2021/12/22 02:26:45;;;;;;;76.18;17.05;;;-2.90;99.90;;;;;;6106743;23;20146;-87
2021/12/22 02:29:23;;;;;;;74.20;16.42;;;-2.90;99.90;;;;;;6133168;23;20523;-87
2021/12/22 02:32:06;;;;;;;75.65;18.30;;;-2.90;99.90;;;;;;6107939;23;20647;-85
2021/12/22 02:34:40;;;;;;;71.18;15.82;;;-2.80;99.90;;;;;;6132925;23;20178;-87
2021/12/22 02:37:11;;;;;;;77.53;15.63;;;-2.70;99.90;;;;;;6106814;23;20134;-85
2021/12/22 02:39:44;;;;;;;75.05;19.48;;;-2.70;99.90;;;;;;6133597;23;20249;-87
2021/12/22 02:42:11;;;;;;;79.03;20.65;;;-2.70;99.90;;;;;;6106658;23;20235;-87
2021/12/22 02:44:37;;;;;;;75.68;19.25;;;-2.70;99.90;;;;;;6132005;23;20158;-87
2021/12/22 02:47:19;;;;;;;75.97;18.50;;;-2.70;99.90;;;;;;6131513;23;20142;-85
2021/12/22 02:49:45;;;;;;;76.82;21.60;;;-2.70;99.90;;;;;;6106583;23;20511;-87
2021/12/22 02:52:10;;;;;;;79.97;20.80;;;-2.80;99.90;;;;;;6133048;23;20153;-87
2021/12/22 02:54:43;;;;;;;75.80;20.37;;;-2.70;99.90;;;;;;6131741;23;20478;-87
2021/12/22 03:00:23;;;;;;;76.97;19.00;;;-2.70;99.90;;;;;;6142817;23;20154;-87
2021/12/22 03:05:28;;;;;;;79.85;21.05;;;-2.60;99.90;;;;;;6087259;23;20147;-87
2021/12/22 03:07:54;;;;;;;79.30;20.58;;;-2.70;99.90;;;;;;6106377;23;20520;-87
2021/12/22 03:10:20;;;;;;;75.72;20.92;;;-2.70;99.90;;;;;;6133015;23;20196;-87
2021/12/22 03:12:50;;;;;;;75.93;20.02;;;-2.80;99.90;;;;;;6106385;23;20675;-87
2021/12/22 03:15:16;;;;;;;81.35;18.33;;;-2.80;99.90;;;;;;6106276;23;20135;-87
2021/12/22 03:17:42;;;;;;;78.32;19.25;;;-2.80;99.90;;;;;;6132979;23;20147;-87
2021/12/22 03:20:10;;;;;;;75.00;20.43;;;-2.90;99.90;;;;;;6132177;23;20150;-87
2021/12/22 03:22:36;;;;;;;78.10;18.85;;;-2.90;99.90;;;;;;6106270;23;20175;-87
2021/12/22 03:25:12;;;;;;;81.82;21.15;;;-2.90;99.90;;;;;;6106080;23;20433;-87
2021/12/22 03:27:38;;;;;;;80.03;19.85;;;-3.00;99.90;;;;;;6105971;23;20146;-87
2021/12/22 03:30:05;;;;;;;79.13;18.83;;;-3.00;99.90;;;;;;6132702;23;20475;-87
2021/12/22 03:32:31;;;;;;;77.88;21.80;;;-3.00;99.90;;;;;;6107070;23;20211;-87
2021/12/22 03:34:57;;;;;;;78.60;19.57;;;-3.00;99.90;;;;;;6133543;23;20163;-87
2021/12/22 03:37:23;;;;;;;74.10;19.17;;;-3.00;99.90;;;;;;6133162;23;20147;-87
2021/12/22 03:39:49;;;;;;;77.05;18.92;;;-3.00;99.90;;;;;;6133955;23;20222;-87
2021/12/22 03:42:14;;;;;;;74.93;18.93;;;-2.90;99.90;;;;;;6107789;23;20198;-87
2021/12/22 03:44:40;;;;;;;78.47;20.53;;;-2.90;99.90;;;;;;6132944;23;20394;-87
2021/12/22 03:47:06;;;;;;;76.30;18.70;;;-2.90;99.90;;;;;;6133477;23;20143;-87
2021/12/22 03:49:33;;;;;;;77.45;21.25;;;-3.00;99.90;;;;;;6133332;23;20370;-87
2021/12/22 03:51:58;;;;;;;78.78;22.58;;;-3.00;99.90;;;;;;6107967;23;20150;-87
2021/12/22 03:54:24;;;;;;;82.17;21.73;;;-3.00;99.90;;;;;;6108136;23;20224;-86
2021/12/22 03:56:50;;;;;;;77.73;17.87;;;-3.00;99.90;;;;;;6133036;23;20158;-87
2021/12/22 03:59:16;;;;;;;83.43;18.20;;;-3.10;99.90;;;;;;6107915;23;20233;-87
2021/12/22 04:01:42;;;;;;;82.93;18.55;;;-3.10;99.90;;;;;;6132888;23;20366;-87
2021/12/22 04:04:13;;;;;;;79.03;19.27;;;-3.10;99.90;;;;;;6106921;23;20632;-87
2021/12/22 04:06:41;;;;;;;79.95;20.65;;;-3.10;99.90;;;;;;6133442;23;20653;-87
2021/12/22 04:09:07;;;;;;;78.55;21.08;;;-3.10;99.90;;;;;;6132847;23;20139;-87
2021/12/22 04:11:33;;;;;;;78.78;17.50;;;-3.10;99.90;;;;;;6083345;23;20676;-87
2021/12/22 04:13:59;;;;;;;82.88;19.77;;;-3.00;99.90;;;;;;6132434;23;20163;-87
2021/12/22 04:16:25;;;;;;;81.23;21.87;;;-3.10;99.90;;;;;;6133096;23;20675;-87
2021/12/22 04:18:50;;;;;;;76.40;19.07;;;-3.10;99.90;;;;;;6134525;23;20162;-87
2021/12/22 04:21:19;;;;;;;80.67;20.50;;;-3.10;99.90;;;;;;6133073;23;20139;-87
2021/12/22 04:23:44;;;;;;;76.75;19.05;;;-3.10;99.90;;;;;;6107043;23;20195;-87
2021/12/22 04:26:12;;;;;;;78.57;19.07;;;-3.20;99.90;;;;;;6106645;23;20222;-87
2021/12/22 04:28:40;;;;;;;80.05;18.67;;;-3.20;99.90;;;;;;6107724;23;20234;-87
2021/12/22 04:31:06;;;;;;;76.28;17.38;;;-3.20;99.90;;;;;;6132557;23;20256;-87
2021/12/22 04:33:31;;;;;;;75.82;17.38;;;-3.30;99.90;;;;;;6107253;23;20170;-87
2021/12/22 04:35:57;;;;;;;76.47;16.90;;;-3.30;99.90;;;;;;6106770;23;20161;-87
2021/12/22 04:38:24;;;;;;;73.27;18.00;;;-3.20;99.90;;;;;;6107185;23;20668;-87
2021/12/22 04:40:50;;;;;;;75.10;16.00;;;-3.30;99.90;;;;;;6107113;23;20420;-87
2021/12/22 04:43:22;;;;;;;75.97;17.48;;;-3.30;99.90;;;;;;6133594;23;20520;-87
2021/12/22 04:45:48;;;;;;;74.93;17.00;;;-3.30;99.90;;;;;;6134023;23;20150;-87
2021/12/22 04:48:14;;;;;;;78.77;18.70;;;-3.40;99.90;;;;;;6133736;23;20146;-87
2021/12/22 04:50:40;;;;;;;83.00;18.65;;;-3.40;99.90;;;;;;6132741;23;20367;-87
2021/12/22 04:53:17;;;;;;;77.43;20.77;;;-3.40;99.90;;;;;;6107841;23;20177;-87
2021/12/22 04:55:42;;;;;;;76.40;15.88;;;-3.50;99.90;;;;;;6133471;23;20358;-86
2021/12/22 04:58:08;;;;;;;74.13;15.03;;;-3.40;99.90;;;;;;6133393;23;20150;-87
2021/12/22 05:00:37;;;;;;;80.20;17.10;;;-3.40;99.90;;;;;;6107053;23;20538;-87
2021/12/22 05:03:03;;;;;;;75.70;18.05;;;-3.40;99.90;;;;;;6131877;23;20204;-87
2021/12/22 05:05:29;;;;;;;77.72;16.65;;;-3.40;99.90;;;;;;6106961;23;20146;-87
2021/12/22 05:07:55;;;;;;;80.70;18.10;;;-3.40;99.90;;;;;;6107102;23;20143;-87
2021/12/22 05:10:22;;;;;;;78.90;15.98;;;-3.40;99.90;;;;;;6106974;23;20151;-87
2021/12/22 05:12:48;;;;;;;74.38;17.38;;;-3.30;99.90;;;;;;6132800;23;20226;-87
2021/12/22 05:15:18;;;;;;;77.90;15.02;;;-3.40;99.90;;;;;;6106838;23;20151;-87
2021/12/22 05:20:12;;;;;;;74.83;16.43;;;-3.30;99.90;;;;;;6132841;23;20147;-87
2021/12/22 05:22:38;;;;;;;75.57;18.17;;;-3.30;99.90;;;;;;6107022;23;20218;-87
2021/12/22 05:25:05;;;;;;;75.28;19.25;;;-3.30;99.90;;;;;;6133064;23;20158;-87
2021/12/22 05:27:31;;;;;;;77.20;17.17;;;-3.30;99.90;;;;;;6107045;23;20165;-87
2021/12/22 05:29:57;;;;;;;73.97;17.23;;;-3.30;99.90;;;;;;6107269;23;20147;-86
2021/12/22 05:32:29;;;;;;;84.90;16.75;;;-3.40;99.90;;;;;;6132744;23;20147;-87
2021/12/22 05:34:55;;;;;;;76.95;19.02;;;-3.40;99.90;;;;;;6107069;23;20230;-86
2021/12/22 05:37:21;;;;;;;78.40;19.67;;;-3.40;99.90;;;;;;6132169;23;20147;-87
2021/12/22 05:39:49;;;;;;;76.80;17.00;;;-3.50;99.90;;;;;;6106593;23;20386;-87
2021/12/22 05:42:15;;;;;;;80.22;16.75;;;-3.50;99.90;;;;;;6133121;23;20623;-87
2021/12/22 05:44:42;;;;;;;80.17;18.40;;;-3.50;99.90;;;;;;6107023;23;20169;-86
2021/12/22 05:47:08;;;;;;;76.70;18.60;;;-3.50;99.90;;;;;;6132875;23;20363;-86
2021/12/22 05:49:34;;;;;;;76.07;16.83;;;-3.50;99.90;;;;;;6133127;23;20149;-87
2021/12/22 05:52:00;;;;;;;76.50;15.85;;;-3.50;99.90;;;;;;6132243;23;20143;-87
2021/12/22 05:54:26;;;;;;;79.53;17.67;;;-3.40;99.90;;;;;;6104831;23;20481;-86
2021/12/22 05:56:52;;;;;;;79.40;16.03;;;-3.50;99.90;;;;;;6107603;23;20182;-87
2021/12/22 05:59:18;;;;;;;79.65;17.85;;;-3.40;99.90;;;;;;6106126;23;20209;-87
2021/12/22 06:01:47;;;;;;;76.20;16.33;;;-3.40;99.90;;;;;;6106157;23;20659;-86
2021/12/22 06:04:12;;;;;;;81.03;16.15;;;-3.40;99.90;;;;;;6131909;23;20162;-87
2021/12/22 06:06:38;;;;;;;89.47;18.60;;;-3.40;99.90;;;;;;6131983;23;20146;-87
2021/12/22 06:09:04;;;;;;;74.37;16.57;;;-3.40;99.90;;;;;;6130671;23;20210;-87
2021/12/22 06:11:30;;;;;;;78.28;16.85;;;-3.40;99.90;;;;;;6131335;23;20138;-86
2021/12/22 06:13:57;;;;;;;85.00;15.73;;;-3.40;99.90;;;;;;6106160;23;20167;-87
2021/12/22 06:16:23;;;;;;;79.47;16.70;;;-3.40;99.90;;;;;;6105908;23;20427;-87
2021/12/22 06:18:55;;;;;;;80.97;15.88;;;-3.30;99.90;;;;;;6131506;23;20191;-87
2021/12/22 06:21:20;;;;;;;78.50;16.45;;;-3.30;99.90;;;;;;6106883;23;20224;-87
2021/12/22 06:23:46;;;;;;;78.43;16.03;;;-3.40;99.90;;;;;;6131113;23;20205;-87
2021/12/22 06:26:12;;;;;;;77.47;16.00;;;-3.30;99.90;;;;;;6106016;23;20157;-87
2021/12/22 06:28:38;;;;;;;76.38;17.45;;;-3.40;99.90;;;;;;6131069;23;20162;-87
2021/12/22 06:31:04;;;;;;;78.67;16.70;;;-3.30;99.90;;;;;;6130929;23;20143;-86
2021/12/22 06:33:32;;;;;;;82.43;18.40;;;-3.30;99.90;;;;;;6105277;23;20398;-85
2021/12/22 06:35:58;;;;;;;76.05;17.63;;;-3.40;99.90;;;;;;6104853;23;20204;-85
2021/12/22 06:38:24;;;;;;;78.37;17.33;;;-3.40;99.90;;;;;;6104082;23;20581;-86
2021/12/22 06:41:00;;;;;;;;;;;;;;;;;;;;;
2021/12/22 06:43:36;;;;;;;76.72;16.60;;;-3.40;99.90;;;;;;6128475;23;20513;-87
2021/12/22 06:46:09;;;;;;;73.88;16.33;;;-3.40;99.90;;;;;;6111045;23;20153;-86
2021/12/22 06:48:47;;;;;;;78.55;16.88;;;-3.40;99.90;;;;;;6106659;23;20150;-87
2021/12/22 06:51:14;;;;;;;77.47;15.15;;;-3.30;99.90;;;;;;6134500;23;20134;-87
2021/12/22 06:53:42;;;;;;;83.68;18.85;;;-3.30;99.90;;;;;;6132962;23;20173;-88
2021/12/22 06:56:11;;;;;;;76.40;19.45;;;-3.20;99.90;;;;;;6130684;23;20174;-86
2021/12/22 06:59:00;;;;;;;75.95;16.60;;;-3.30;99.90;;;;;;6105089;23;20159;-86
2021/12/22 07:06:09;;;;;;;75.63;14.48;;;-3.20;99.90;;;;;;6132286;23;20182;-87
2021/12/22 07:12:16;;;;;;;78.80;14.82;;;-3.20;99.90;;;;;;6136537;23;20147;-87
2021/12/22 07:15:01;;;;;;;79.72;15.57;;;-3.20;99.90;;;;;;6111233;23;20170;-87
2021/12/22 07:17:57;;;;;;;75.95;17.17;;;-3.20;99.90;;;;;;6102578;23;20147;-87
2021/12/22 07:20:41;;;;;;;78.05;17.00;;;-3.30;99.90;;;;;;6038122;23;20149;-87
2021/12/22 07:26:26;;;;;;;79.63;24.08;;;-2.80;99.90;;;;;;6130740;23;20150;-88
2021/12/22 07:28:55;;;;;;;80.45;26.60;;;-2.70;99.90;;;;;;6098077;23;20169;-89
2021/12/22 07:31:24;;;;;;;79.40;28.10;;;-2.70;99.90;;;;;;6109507;23;20146;-88
2021/12/22 07:34:07;;;;;;;78.65;25.13;;;-2.70;99.90;;;;;;6109515;23;20179;-87
2021/12/22 07:36:58;;;;;;;76.30;23.58;;;-2.70;99.90;;;;;;6109075;23;20143;-88
2021/12/22 07:39:26;;;;;;;81.07;23.13;;;-2.60;99.90;;;;;;6108100;23;20146;-88
2021/12/22 07:41:52;;;;;;;81.32;25.27;;;-2.50;99.90;;;;;;6134625;23;20159;-88
2021/12/22 07:44:27;;;;;;;78.03;25.13;;;-2.50;99.90;;;;;;6135698;23;20169;-88
2021/12/22 07:51:33;;;;;;;;;;;;;;;;;;;;;
2021/12/22 07:55:00;;;;;;;;;;;;;;;;;;;;;
2021/12/22 07:58:34;;;;;;;73.78;21.45;;;-2.40;99.90;;;;;;5970891;23;20206;-88
2021/12/22 08:11:31;;;;;;;78.93;28.13;;;-2.20;99.90;;;;;;6239502;22;20650;-88
2021/12/22 08:14:03;;;;;;;75.57;25.20;;;-2.20;99.90;;;;;;6096351;23;20513;-88
2021/12/22 08:17:27;;;;;;;;;;;;;;;;;;;;;
2021/12/22 08:20:44;;;;;;;79.18;26.95;;;-2.10;99.90;;;;;;6156293;23;20236;-88
2021/12/22 08:23:42;;;;;;;82.53;31.17;;;-2.10;99.90;;;;;;6206112;22;20773;-89
2021/12/22 08:30:28;;;;;;;;;;;;;;;;;;;;;
2021/12/22 08:33:26;;;;;;;77.95;28.88;;;-2.00;99.90;;;;;;6153881;23;20206;-88
2021/12/22 08:40:20;;;;;;;;;;;;;;;;;;;;;
2021/12/22 08:47:21;;;;;;;;;;;;;;;;;;;;;
2021/12/22 08:50:56;;;;;;;75.28;25.48;;;-1.90;99.90;;;;;;6067871;23;20235;-89
2021/12/22 08:54:18;;;;;;;76.18;23.95;;;-1.80;99.90;;;;;;5981005;24;20178;-89
2021/12/22 09:14:24;;;;;;;82.15;27.45;;;-1.50;99.90;;;;;;6101962;23;20173;-89
2021/12/22 09:20:36;;;;;;;80.55;27.50;;;-1.50;99.90;;;;;;6099729;23;20236;-89
2021/12/22 09:23:10;;;;;;;81.93;27.27;;;-1.40;99.90;;;;;;6096580;23;20191;-89
2021/12/22 09:29:24;;;;;;;88.50;25.63;;;-1.40;99.90;;;;;;6124736;23;20154;-89
2021/12/22 09:31:57;;;;;;;83.78;40.65;;;-1.30;99.90;;;;;;6101151;23;20150;-89
2021/12/22 09:34:29;;;;;;;86.80;39.20;;;-1.30;99.90;;;;;;6100095;23;20205;-89
2021/12/22 09:37:30;;;;;;;83.90;41.53;;;-1.30;99.90;;;;;;6100765;23;20169;-89
2021/12/22 09:39:59;;;;;;;79.32;32.65;;;-1.30;99.90;;;;;;6100546;23;20155;-89
2021/12/22 09:42:35;;;;;;;80.15;29.83;;;-1.20;99.90;;;;;;6099990;23;20179;-89
2021/12/22 09:45:04;;;;;;;88.88;48.88;;;-1.10;99.90;;;;;;6126267;23;20159;-89
2021/12/22 09:47:41;;;;;;;82.13;35.63;;;-1.10;99.90;;;;;;6101434;23;20226;-89
2021/12/22 09:50:10;;;;;;;91.63;45.63;;;-1.10;99.90;;;;;;6099590;23;20154;-89
2021/12/22 09:53:00;;;;;;;82.72;37.22;;;-1.00;99.90;;;;;;6101874;23;20158;-89
2021/12/22 09:55:27;;;;;;;86.45;35.20;;;-1.00;99.90;;;;;;6100682;23;20182;-89
2021/12/22 09:58:14;;;;;;;;;;;;;;;;;;;;;
2021/12/22 10:00:48;;;;;;;83.07;34.15;;;-0.90;99.90;;;;;;6113838;23;20222;-89
2021/12/22 10:06:01;;;;;;;191.50;176.52;;;-0.70;99.90;;;;;;6121143;23;20700;-89
2021/12/22 10:08:43;;;;;;;90.15;41.85;;;-0.70;99.90;;;;;;6100529;23;20146;-88
2021/12/22 10:11:24;;;;;;;85.70;39.47;;;-0.70;99.90;;;;;;6102309;23;20150;-88
2021/12/22 10:14:42;;;;;;;98.20;54.05;;;-0.70;99.90;;;;;;6099008;23;20174;-89
2021/12/22 10:18:11;;;;;;;79.88;34.58;;;-0.60;99.90;;;;;;6126251;23;20147;-89
2021/12/22 10:24:58;;;;;;;92.72;50.40;;;-0.40;99.90;;;;;;6188737;23;20247;-89
2021/12/22 10:45:16;;;;;;;92.47;56.47;;;-0.10;99.90;;;;;;6157131;23;20190;-88
2021/12/22 11:09:19;;;;;;;90.45;47.28;;;0.30;99.90;;;;;;6109681;23;20177;-87
2021/12/22 11:40:54;;;;;;;93.38;54.75;;;0.80;99.90;;;;;;6037390;23;20156;-87
2021/12/22 12:11:04;;;;;;;87.07;40.15;;;1.10;99.90;;;;;;6120417;23;20220;-89
2021/12/22 12:42:05;;;;;;;82.80;23.52;;;1.60;99.90;;;;;;6101196;23;20209;-87
2021/12/22 12:44:44;;;;;;;79.95;17.83;;;1.60;99.90;;;;;;6099271;23;20190;-87
2021/12/22 12:47:26;;;;;;;81.43;22.10;;;1.70;99.90;;;;;;6094797;23;20143;-87
2021/12/22 12:49:52;;;;;;;81.22;20.17;;;1.70;99.90;;;;;;6096391;23;20135;-87
2021/12/22 12:52:32;;;;;;;80.50;21.00;;;1.70;99.90;;;;;;6072701;23;20151;-87
2021/12/22 12:55:32;;;;;;;79.65;19.42;;;1.80;99.90;;;;;;6068376;23;20175;-87
2021/12/22 12:58:26;;;;;;;82.75;19.58;;;1.80;99.90;;;;;;6124766;23;20238;-87
2021/12/22 13:01:01;;;;;;;82.40;22.38;;;1.80;99.90;;;;;;6094614;23;20155;-87
2021/12/22 13:03:29;;;;;;;87.43;15.65;;;1.80;99.90;;;;;;6093332;23;20182;-88
2021/12/22 13:06:00;;;;;;;79.55;13.77;;;1.80;99.90;;;;;;6093329;23;20165;-87
2021/12/22 13:08:31;;;;;;;78.68;15.43;;;1.80;99.90;;;;;;6068225;23;20139;-87
2021/12/22 13:17:17;;;;;;;80.55;15.38;;;1.80;99.90;;;;;;6093606;23;20138;-87
2021/12/22 13:19:48;;;;;;;77.00;14.32;;;1.90;99.90;;;;;;6068124;23;20215;-87
2021/12/22 13:22:28;;;;;;;80.03;15.52;;;1.80;99.90;;;;;;6093737;23;20171;-87
2021/12/22 13:25:15;;;;;;;85.43;13.75;;;1.80;99.90;;;;;;6094031;23;20246;-87
2021/12/22 13:27:47;;;;;;;84.13;15.00;;;1.90;99.90;;;;;;6068200;23;20170;-88
2021/12/22 13:30:17;;;;;;;76.10;14.55;;;1.90;99.90;;;;;;6068966;23;20144;-88
2021/12/22 13:33:03;;;;;;;79.13;13.75;;;1.90;99.90;;;;;;6068265;23;20186;-87
2021/12/22 13:35:40;;;;;;;83.68;15.80;;;1.90;99.90;;;;;;6104062;23;20185;-87
2021/12/22 13:38:35;;;;;;;82.65;15.10;;;1.80;99.90;;;;;;6068194;23;20143;-87
2021/12/22 13:41:21;;;;;;;82.60;14.18;;;1.80;99.90;;;;;;6068897;23;20158;-88
2021/12/22 13:44:25;;;;;;;85.70;18.23;;;1.80;99.90;;;;;;6093084;23;20254;-87
2021/12/22 13:50:41;;;;;;;79.57;14.73;;;1.70;99.90;;;;;;6004810;23;20162;-88
2021/12/22 13:55:39;;;;;;;83.75;14.93;;;1.70;99.90;;;;;;6064538;23;20483;-87
2021/12/22 14:01:54;;;;;;;80.47;13.57;;;1.70;99.90;;;;;;6125255;23;20134;-87
2021/12/22 14:05:14;;;;;;;88.13;15.15;;;1.70;99.90;;;;;;6101189;23;20237;-87
2021/12/22 14:07:40;;;;;;;82.93;14.88;;;1.70;99.90;;;;;;6155937;23;20197;-87
2021/12/22 14:10:19;;;;;;;81.60;14.90;;;1.70;99.90;;;;;;6156556;23;20154;-87
2021/12/22 14:13:01;;;;;;;80.07;14.07;;;1.70;99.90;;;;;;6146707;23;20380;-87
2021/12/22 14:15:38;;;;;;;77.53;12.18;;;1.60;99.90;;;;;;6165927;23;20148;-87
2021/12/22 14:18:04;;;;;;;79.78;13.55;;;1.60;99.90;;;;;;6168221;23;20155;-87
2021/12/22 14:20:38;;;;;;;77.50;13.50;;;1.60;99.90;;;;;;6067857;23;20728;-87
2021/12/22 14:23:04;;;;;;;83.82;15.00;;;1.60;99.90;;;;;;6166893;23;20478;-87
2021/12/22 14:25:36;;;;;;;80.00;13.73;;;1.60;99.90;;;;;;6067405;23;20151;-87
2021/12/22 14:28:16;;;;;;;81.18;12.98;;;1.50;99.90;;;;;;6067425;23;20596;-87
2021/12/22 14:30:42;;;;;;;77.63;16.63;;;1.50;99.90;;;;;;6166760;23;20140;-87
2021/12/22 14:33:19;;;;;;;82.03;15.25;;;1.50;99.90;;;;;;6067621;23;20176;-87
2021/12/22 14:35:54;;;;;;;83.03;16.38;;;1.50;99.90;;;;;;6067366;23;20129;-87
2021/12/22 14:38:27;;;;;;;77.00;14.82;;;1.50;99.90;;;;;;6066457;23;20135;-87
2021/12/22 14:41:08;;;;;;;80.10;15.38;;;1.50;99.90;;;;;;6166304;23;20144;-87
2021/12/22 14:43:44;;;;;;;79.07;14.13;;;1.40;99.90;;;;;;6067436;23;20176;-87
2021/12/22 14:46:13;;;;;;;91.07;15.55;;;1.40;99.90;;;;;;6065609;23;20472;-87
2021/12/22 14:48:48;;;;;;;81.65;16.30;;;1.40;99.90;;;;;;6065986;23;20146;-87
2021/12/22 14:51:17;;;;;;;79.40;15.88;;;1.40;99.90;;;;;;6164580;23;20148;-87
2021/12/22 14:53:47;;;;;;;84.55;16.58;;;1.40;99.90;;;;;;6064865;23;20679;-87
2021/12/22 14:56:15;;;;;;;78.47;14.73;;;1.40;99.90;;;;;;6164946;23;20631;-87
2021/12/22 14:58:41;;;;;;;82.70;15.52;;;1.40;99.90;;;;;;6164752;23;20250;-87
2021/12/22 15:01:10;;;;;;;80.15;17.88;;;1.40;99.90;;;;;;6065465;23;20144;-87
2021/12/22 15:03:36;;;;;;;80.90;15.95;;;1.30;99.90;;;;;;6064755;23;20518;-87
2021/12/22 15:06:11;;;;;;;85.63;17.42;;;1.30;99.90;;;;;;6064176;23;20140;-87
2021/12/22 15:08:39;;;;;;;77.57;14.20;;;1.30;99.90;;;;;;6164400;23;20578;-87
2021/12/22 15:11:15;;;;;;;80.32;13.38;;;1.20;99.90;;;;;;6164327;23;20148;-87
2021/12/22 15:13:41;;;;;;;80.55;14.32;;;1.20;99.90;;;;;;6164019;23;20548;-87
2021/12/22 15:16:10;;;;;;;82.23;14.87;;;1.20;99.90;;;;;;6163589;23;20286;-87
2021/12/22 15:18:37;;;;;;;82.65;15.20;;;1.10;99.90;;;;;;6063865;23;20864;-87
2021/12/22 15:21:09;;;;;;;78.30;13.63;;;1.10;99.90;;;;;;6064426;23;20469;-87
2021/12/22 15:23:41;;;;;;;78.60;14.10;;;1.10;99.90;;;;;;6162926;23;20190;-87
2021/12/22 15:26:14;;;;;;;79.18;13.90;;;1.10;99.90;;;;;;6163445;23;20602;-87
2021/12/22 15:28:42;;;;;;;79.90;15.05;;;1.10;99.90;;;;;;6166038;23;20175;-87
2021/12/22 15:31:11;;;;;;;77.22;14.40;;;1.00;99.90;;;;;;6165704;23;20155;-87
2021/12/22 15:33:39;;;;;;;83.13;14.65;;;1.00;99.90;;;;;;6165489;23;20168;-87
2021/12/22 15:36:05;;;;;;;85.82;15.43;;;1.00;99.90;;;;;;6065439;23;20171;-87
2021/12/22 15:38:34;;;;;;;79.15;14.40;;;1.00;99.90;;;;;;6065010;23;20163;-87
2021/12/22 15:40:59;;;;;;;77.53;13.18;;;0.90;99.90;;;;;;6064998;23;20148;-87
2021/12/22 15:43:26;;;;;;;79.50;15.90;;;0.90;99.90;;;;;;6165003;23;20210;-87
2021/12/22 15:45:54;;;;;;;83.00;16.77;;;0.90;99.90;;;;;;6065007;23;20368;-87
2021/12/22 15:48:21;;;;;;;79.90;14.98;;;0.90;99.90;;;;;;6165887;23;20163;-87
2021/12/22 15:50:52;;;;;;;90.07;16.25;;;0.90;99.90;;;;;;6064947;23;20141;-87
2021/12/22 15:53:22;;;;;;;80.97;15.65;;;0.80;99.90;;;;;;6164861;23;20235;-87
2021/12/22 15:55:50;;;;;;;81.45;17.30;;;0.80;99.90;;;;;;6065208;23;20147;-87
2021/12/22 15:58:21;;;;;;;83.25;15.75;;;0.80;99.90;;;;;;6165517;23;20162;-87
2021/12/22 16:01:05;;;;;;;81.63;18.42;;;0.70;99.90;;;;;;6064841;23;20148;-87
2021/12/22 16:03:34;;;;;;;86.90;21.95;;;0.70;99.90;;;;;;6165630;23;20187;-87
2021/12/22 16:06:00;;;;;;;86.80;20.17;;;0.70;99.90;;;;;;6164884;23;20159;-87
2021/12/22 16:08:27;;;;;;;82.05;18.20;;;0.70;99.90;;;;;;6064787;23;20474;-87
2021/12/22 16:10:53;;;;;;;85.50;23.23;;;0.60;99.90;;;;;;6064844;23;20186;-87
2021/12/22 16:13:27;;;;;;;89.45;26.55;;;0.60;99.90;;;;;;6064465;23;20191;-87
2021/12/22 16:15:57;;;;;;;80.15;23.10;;;0.60;99.90;;;;;;6065004;23;20132;-87
2021/12/22 16:18:23;;;;;;;81.10;22.48;;;0.60;99.90;;;;;;6064920;23;20151;-87
2021/12/22 16:20:55;;;;;;;81.43;24.27;;;0.60;99.90;;;;;;6165181;23;20659;-87
2021/12/22 16:23:27;;;;;;;86.45;22.98;;;0.60;99.90;;;;;;6064995;23;20179;-87
2021/12/22 16:25:59;;;;;;;81.75;19.85;;;0.60;99.90;;;;;;6165637;23;20159;-87
2021/12/22 16:28:25;;;;;;;83.55;21.25;;;0.60;99.90;;;;;;6065024;23;20140;-87
2021/12/22 16:30:54;;;;;;;82.40;22.70;;;0.60;99.90;;;;;;6064866;23;20140;-87
2021/12/22 16:33:30;;;;;;;84.68;20.52;;;0.50;99.90;;;;;;6064681;23;20687;-87
2021/12/22 16:35:55;;;;;;;81.80;18.42;;;0.50;99.90;;;;;;6164773;23;20151;-87
2021/12/22 16:38:21;;;;;;;82.00;22.10;;;0.50;99.90;;;;;;6165531;23;20156;-87
2021/12/22 16:41:08;;;;;;;82.93;22.07;;;0.60;99.90;;;;;;6165265;23;20152;-87
2021/12/22 16:43:34;;;;;;;90.50;23.08;;;0.50;99.90;;;;;;6064762;23;20199;-87
2021/12/22 16:46:00;;;;;;;80.70;21.55;;;0.50;99.90;;;;;;6166456;23;20187;-87
2021/12/22 16:48:26;;;;;;;87.13;25.20;;;0.50;99.90;;;;;;6065212;23;20219;-87